sensor_id;sensor_type;location;lat;lon;timestamp;temperature;humidity
19734;DHT22;10018;51.230;7.860;2023-12-14T00:01:24;6.80;99.90
19734;DHT22;10018;51.230;7.860;2023-12-14T00:03:49;6.80;99.90
19734;DHT22;10018;51.230;7.860;2023-12-14T00:06:15;6.80;99.90
19734;DHT22;10018;51.230;7.860;2023-12-14T00:08:40;6.80;99.90
19734;DHT22;10018;51.230;7.860;2023-12-14T00:11:07;6.80;99.90
19734;DHT22;10018;51.230;7.860;2023-12-14T00:13:33;6.80;99.90
19734;DHT22;10018;51.230;7.860;2023-12-14T00:15:59;6.80;99.90
19734;DHT22;10018;51.230;7.860;2023-12-14T00:18:25;6.80;99.90
19734;DHT22;10018;51.230;7.860;2023-12-14T00:20:53;6.80;99.90
19734;DHT22;10018;51.230;7.860;2023-12-14T00:23:22;6.80;99.90
19734;DHT22;10018;51.230;7.860;2023-12-14T00:25:48;6.80;99.90
19734;DHT22;10018;51.230;7.860;2023-12-14T00:28:14;6.80;99.90
19734;DHT22;10018;51.230;7.860;2023-12-14T00:30:42;6.90;99.90
19734;DHT22;10018;51.230;7.860;2023-12-14T00:33:07;6.90;99.90
19734;DHT22;10018;51.230;7.860;2023-12-14T00:35:33;6.90;99.90
19734;DHT22;10018;51.230;7.860;2023-12-14T00:37:58;6.90;99.90
19734;DHT22;10018;51.230;7.860;2023-12-14T00:40:24;6.90;99.90
19734;DHT22;10018;51.230;7.860;2023-12-14T00:42:50;6.90;99.90
19734;DHT22;10018;51.230;7.860;2023-12-14T00:45:16;6.90;99.90
19734;DHT22;10018;51.230;7.860;2023-12-14T00:47:44;6.90;99.90
19734;DHT22;10018;51.230;7.860;2023-12-14T00:50:09;6.90;99.90
19734;DHT22;10018;51.230;7.860;2023-12-14T00:52:35;6.90;99.90
19734;DHT22;10018;51.230;7.860;2023-12-14T00:55:01;6.90;99.90
19734;DHT22;10018;51.230;7.860;2023-12-14T00:57:27;7.00;99.90
19734;DHT22;10018;51.230;7.860;2023-12-14T00:59:52;6.90;99.90
19734;DHT22;10018;51.230;7.860;2023-12-14T01:02:18;6.90;99.90
19734;DHT22;10018;51.230;7.860;2023-12-14T01:04:43;6.90;99.90
19734;DHT22;10018;51.230;7.860;2023-12-14T01:07:09;6.90;99.90
19734;DHT22;10018;51.230;7.860;2023-12-14T01:09:35;6.90;99.90
19734;DHT22;10018;51.230;7.860;2023-12-14T01:12:03;6.90;99.90
19734;DHT22;10018;51.230;7.860;2023-12-14T01:14:29;7.00;99.90
19734;DHT22;10018;51.230;7.860;2023-12-14T01:16:54;6.90;99.90
19734;DHT22;10018;51.230;7.860;2023-12-14T01:19:20;7.00;99.90
19734;DHT22;10018;51.230;7.860;2023-12-14T01:21:45;7.00;99.90
19734;DHT22;10018;51.230;7.860;2023-12-14T01:24:11;7.00;99.90
19734;DHT22;10018;51.230;7.860;2023-12-14T01:26:37;7.00;99.90
19734;DHT22;10018;51.230;7.860;2023-12-14T01:29:02;7.00;99.90
19734;DHT22;10018;51.230;7.860;2023-12-14T01:31:28;7.00;99.90
19734;DHT22;10018;51.230;7.860;2023-12-14T01:33:53;7.00;99.90
19734;DHT22;10018;51.230;7.860;2023-12-14T01:36:28;7.00;99.90
19734;DHT22;10018;51.230;7.860;2023-12-14T01:38:54;7.00;99.90
19734;DHT22;10018;51.230;7.860;2023-12-14T01:41:20;7.00;99.90
19734;DHT22;10018;51.230;7.860;2023-12-14T01:43:45;7.00;99.90
19734;DHT22;10018;51.230;7.860;2023-12-14T01:46:11;7.00;99.90
19734;DHT22;10018;51.230;7.860;2023-12-14T01:48:38;7.00;99.90
19734;DHT22;10018;51.230;7.860;2023-12-14T01:51:03;7.00;99.90
19734;DHT22;10018;51.230;7.860;2023-12-14T01:53:29;7.00;99.90
19734;DHT22;10018;51.230;7.860;2023-12-14T01:55:55;7.10;99.90
19734;DHT22;10018;51.230;7.860;2023-12-14T01:58:21;7.00;99.90
19734;DHT22;10018;51.230;7.860;2023-12-14T02:00:53;7.00;99.90
19734;DHT22;10018;51.230;7.860;2023-12-14T02:03:21;7.00;99.90
19734;DHT22;10018;51.230;7.860;2023-12-14T02:05:47;7.20;99.90
19734;DHT22;10018;51.230;7.860;2023-12-14T02:08:12;7.20;99.90
19734;DHT22;10018;51.230;7.860;2023-12-14T02:10:38;7.10;99.90
19734;DHT22;10018;51.230;7.860;2023-12-14T02:13:06;7.00;99.90
19734;DHT22;10018;51.230;7.860;2023-12-14T02:15:32;7.00;99.90
19734;DHT22;10018;51.230;7.860;2023-12-14T02:17:58;6.90;99.90
19734;DHT22;10018;51.230;7.860;2023-12-14T02:20:23;6.90;99.90
19734;DHT22;10018;51.230;7.860;2023-12-14T02:22:53;6.80;99.90
19734;DHT22;10018;51.230;7.860;2023-12-14T02:25:20;6.90;99.90
19734;DHT22;10018;51.230;7.860;2023-12-14T02:27:46;6.80;99.90
19734;DHT22;10018;51.230;7.860;2023-12-14T02:30:13;6.80;99.90
19734;DHT22;10018;51.230;7.860;2023-12-14T02:32:41;6.80;99.90
19734;DHT22;10018;51.230;7.860;2023-12-14T02:35:07;6.80;99.90
19734;DHT22;10018;51.230;7.860;2023-12-14T02:37:33;6.70;99.90
19734;DHT22;10018;51.230;7.860;2023-12-14T02:40:03;6.60;99.90
19734;DHT22;10018;51.230;7.860;2023-12-14T02:42:29;6.70;99.90
19734;DHT22;10018;51.230;7.860;2023-12-14T02:44:57;6.70;99.90
19734;DHT22;10018;51.230;7.860;2023-12-14T02:47:27;6.70;99.90
19734;DHT22;10018;51.230;7.860;2023-12-14T02:49:52;6.70;99.90
19734;DHT22;10018;51.230;7.860;2023-12-14T02:52:18;6.60;99.90
19734;DHT22;10018;51.230;7.860;2023-12-14T02:54:43;6.60;99.90
19734;DHT22;10018;51.230;7.860;2023-12-14T02:57:09;6.50;99.90
19734;DHT22;10018;51.230;7.860;2023-12-14T02:59:34;6.50;99.90
19734;DHT22;10018;51.230;7.860;2023-12-14T03:02:00;6.50;99.90
19734;DHT22;10018;51.230;7.860;2023-12-14T03:04:25;6.50;99.90
19734;DHT22;10018;51.230;7.860;2023-12-14T03:06:51;6.40;99.90
19734;DHT22;10018;51.230;7.860;2023-12-14T03:09:16;6.30;99.90
19734;DHT22;10018;51.230;7.860;2023-12-14T03:11:44;6.40;99.90
19734;DHT22;10018;51.230;7.860;2023-12-14T03:14:12;6.50;99.90
19734;DHT22;10018;51.230;7.860;2023-12-14T03:16:37;6.40;99.90
19734;DHT22;10018;51.230;7.860;2023-12-14T03:19:03;6.40;99.90
19734;DHT22;10018;51.230;7.860;2023-12-14T03:21:29;6.40;99.90
19734;DHT22;10018;51.230;7.860;2023-12-14T03:23:54;6.40;99.90
19734;DHT22;10018;51.230;7.860;2023-12-14T03:26:20;6.40;99.90
19734;DHT22;10018;51.230;7.860;2023-12-14T03:28:46;6.40;99.90
19734;DHT22;10018;51.230;7.860;2023-12-14T03:31:12;6.40;99.90
19734;DHT22;10018;51.230;7.860;2023-12-14T03:33:38;6.40;99.90
19734;DHT22;10018;51.230;7.860;2023-12-14T03:36:04;6.30;99.90
19734;DHT22;10018;51.230;7.860;2023-12-14T03:38:30;6.40;99.90
19734;DHT22;10018;51.230;7.860;2023-12-14T03:40:56;6.30;99.90
19734;DHT22;10018;51.230;7.860;2023-12-14T03:43:21;6.30;99.90
19734;DHT22;10018;51.230;7.860;2023-12-14T03:45:47;6.40;99.90
19734;DHT22;10018;51.230;7.860;2023-12-14T03:48:13;6.40;99.90
19734;DHT22;10018;51.230;7.860;2023-12-14T03:50:41;6.40;99.90
19734;DHT22;10018;51.230;7.860;2023-12-14T03:53:06;6.40;99.90
19734;DHT22;10018;51.230;7.860;2023-12-14T03:55:32;6.30;99.90
19734;DHT22;10018;51.230;7.860;2023-12-14T03:57:58;6.30;99.90
19734;DHT22;10018;51.230;7.860;2023-12-14T04:00:25;6.30;99.90
19734;DHT22;10018;51.230;7.860;2023-12-14T04:02:50;6.30;99.90
19734;DHT22;10018;51.230;7.860;2023-12-14T04:05:16;6.20;99.90
19734;DHT22;10018;51.230;7.860;2023-12-14T04:07:44;6.20;99.90
19734;DHT22;10018;51.230;7.860;2023-12-14T04:10:11;6.30;99.90
19734;DHT22;10018;51.230;7.860;2023-12-14T04:12:37;6.30;99.90
19734;DHT22;10018;51.230;7.860;2023-12-14T04:15:04;6.30;99.90
19734;DHT22;10018;51.230;7.860;2023-12-14T04:17:30;6.20;99.90
19734;DHT22;10018;51.230;7.860;2023-12-14T04:19:56;6.20;99.90
19734;DHT22;10018;51.230;7.860;2023-12-14T04:22:22;6.20;99.90
19734;DHT22;10018;51.230;7.860;2023-12-14T04:24:48;6.20;99.90
19734;DHT22;10018;51.230;7.860;2023-12-14T04:27:14;6.20;99.90
19734;DHT22;10018;51.230;7.860;2023-12-14T04:29:40;6.20;99.90
19734;DHT22;10018;51.230;7.860;2023-12-14T04:32:05;6.20;99.90
19734;DHT22;10018;51.230;7.860;2023-12-14T04:34:31;6.20;99.90
19734;DHT22;10018;51.230;7.860;2023-12-14T04:36:59;6.20;99.90
19734;DHT22;10018;51.230;7.860;2023-12-14T04:39:25;6.20;99.90
19734;DHT22;10018;51.230;7.860;2023-12-14T04:41:51;6.20;99.90
19734;DHT22;10018;51.230;7.860;2023-12-14T04:44:20;6.20;99.90
19734;DHT22;10018;51.230;7.860;2023-12-14T04:46:47;6.20;99.90
19734;DHT22;10018;51.230;7.860;2023-12-14T04:49:12;6.10;99.90
19734;DHT22;10018;51.230;7.860;2023-12-14T04:51:38;6.10;99.90
19734;DHT22;10018;51.230;7.860;2023-12-14T04:54:04;6.00;99.90
19734;DHT22;10018;51.230;7.860;2023-12-14T04:56:31;6.00;99.90
19734;DHT22;10018;51.230;7.860;2023-12-14T04:58:57;5.90;99.90
19734;DHT22;10018;51.230;7.860;2023-12-14T05:01:24;5.90;99.90
19734;DHT22;10018;51.230;7.860;2023-12-14T05:03:52;5.90;99.90
19734;DHT22;10018;51.230;7.860;2023-12-14T05:06:18;6.00;99.90
19734;DHT22;10018;51.230;7.860;2023-12-14T05:08:43;6.00;99.90
19734;DHT22;10018;51.230;7.860;2023-12-14T05:11:09;6.00;99.90
19734;DHT22;10018;51.230;7.860;2023-12-14T05:13:34;5.90;99.90
19734;DHT22;10018;51.230;7.860;2023-12-14T05:16:00;5.90;99.90
19734;DHT22;10018;51.230;7.860;2023-12-14T05:18:27;5.90;99.90
19734;DHT22;10018;51.230;7.860;2023-12-14T05:20:52;5.90;99.90
19734;DHT22;10018;51.230;7.860;2023-12-14T05:23:18;5.90;99.90
19734;DHT22;10018;51.230;7.860;2023-12-14T05:25:44;5.80;99.90
19734;DHT22;10018;51.230;7.860;2023-12-14T05:28:10;5.80;99.90
19734;DHT22;10018;51.230;7.860;2023-12-14T05:30:35;5.80;99.90
19734;DHT22;10018;51.230;7.860;2023-12-14T05:33:01;5.80;99.90
19734;DHT22;10018;51.230;7.860;2023-12-14T05:35:27;5.80;99.90
19734;DHT22;10018;51.230;7.860;2023-12-14T05:37:52;5.70;99.90
19734;DHT22;10018;51.230;7.860;2023-12-14T05:40:18;5.70;99.90
19734;DHT22;10018;51.230;7.860;2023-12-14T05:42:44;5.70;99.90
19734;DHT22;10018;51.230;7.860;2023-12-14T05:45:09;5.70;99.90
19734;DHT22;10018;51.230;7.860;2023-12-14T05:47:35;5.70;99.90
19734;DHT22;10018;51.230;7.860;2023-12-14T05:50:01;5.70;99.90
19734;DHT22;10018;51.230;7.860;2023-12-14T05:52:27;5.70;99.90
19734;DHT22;10018;51.230;7.860;2023-12-14T05:54:53;5.70;99.90
19734;DHT22;10018;51.230;7.860;2023-12-14T05:57:18;5.70;99.90
19734;DHT22;10018;51.230;7.860;2023-12-14T05:59:44;5.70;99.90
19734;DHT22;10018;51.230;7.860;2023-12-14T06:02:10;5.60;99.90
19734;DHT22;10018;51.230;7.860;2023-12-14T06:04:35;5.60;99.90
19734;DHT22;10018;51.230;7.860;2023-12-14T06:07:01;5.70;99.90
19734;DHT22;10018;51.230;7.860;2023-12-14T06:09:27;5.60;99.90
19734;DHT22;10018;51.230;7.860;2023-12-14T06:12:00;5.60;99.90
19734;DHT22;10018;51.230;7.860;2023-12-14T06:14:26;5.60;99.90
19734;DHT22;10018;51.230;7.860;2023-12-14T06:16:52;5.60;99.90
19734;DHT22;10018;51.230;7.860;2023-12-14T06:19:17;5.60;99.90
19734;DHT22;10018;51.230;7.860;2023-12-14T06:21:43;5.60;99.90
19734;DHT22;10018;51.230;7.860;2023-12-14T06:24:08;5.50;99.90
19734;DHT22;10018;51.230;7.860;2023-12-14T06:26:34;5.60;99.90
19734;DHT22;10018;51.230;7.860;2023-12-14T06:29:00;5.60;99.90
19734;DHT22;10018;51.230;7.860;2023-12-14T06:31:25;5.50;99.90
19734;DHT22;10018;51.230;7.860;2023-12-14T06:33:51;5.50;99.90
19734;DHT22;10018;51.230;7.860;2023-12-14T06:36:16;5.60;99.90
19734;DHT22;10018;51.230;7.860;2023-12-14T06:38:45;5.60;99.90
19734;DHT22;10018;51.230;7.860;2023-12-14T06:41:24;5.60;99.90
19734;DHT22;10018;51.230;7.860;2023-12-14T06:43:50;5.60;99.90
19734;DHT22;10018;51.230;7.860;2023-12-14T06:46:16;5.60;99.90
19734;DHT22;10018;51.230;7.860;2023-12-14T06:48:41;5.70;99.90
19734;DHT22;10018;51.230;7.860;2023-12-14T06:51:07;5.70;99.90
19734;DHT22;10018;51.230;7.860;2023-12-14T06:53:34;5.70;99.90
19734;DHT22;10018;51.230;7.860;2023-12-14T06:56:03;5.70;99.90
19734;DHT22;10018;51.230;7.860;2023-12-14T06:58:31;5.70;99.90
19734;DHT22;10018;51.230;7.860;2023-12-14T07:00:57;5.70;99.90
19734;DHT22;10018;51.230;7.860;2023-12-14T07:03:22;5.70;99.90
19734;DHT22;10018;51.230;7.860;2023-12-14T07:05:48;5.70;99.90
19734;DHT22;10018;51.230;7.860;2023-12-14T07:08:13;5.70;99.90
19734;DHT22;10018;51.230;7.860;2023-12-14T07:10:41;5.60;99.90
19734;DHT22;10018;51.230;7.860;2023-12-14T07:13:07;5.60;99.90
19734;DHT22;10018;51.230;7.860;2023-12-14T07:15:33;5.60;99.90
19734;DHT22;10018;51.230;7.860;2023-12-14T07:17:59;5.60;99.90
19734;DHT22;10018;51.230;7.860;2023-12-14T07:20:25;5.50;99.90
19734;DHT22;10018;51.230;7.860;2023-12-14T07:22:50;5.50;99.90
19734;DHT22;10018;51.230;7.860;2023-12-14T07:25:16;5.50;99.90
19734;DHT22;10018;51.230;7.860;2023-12-14T07:27:41;5.50;99.90
19734;DHT22;10018;51.230;7.860;2023-12-14T07:30:11;5.50;99.90
19734;DHT22;10018;51.230;7.860;2023-12-14T07:32:36;5.40;99.90
19734;DHT22;10018;51.230;7.860;2023-12-14T07:35:02;5.40;99.90
19734;DHT22;10018;51.230;7.860;2023-12-14T07:37:28;5.50;99.90
19734;DHT22;10018;51.230;7.860;2023-12-14T07:39:53;5.40;99.90
19734;DHT22;10018;51.230;7.860;2023-12-14T07:42:19;5.30;99.90
19734;DHT22;10018;51.230;7.860;2023-12-14T07:44:47;5.40;99.90
19734;DHT22;10018;51.230;7.860;2023-12-14T07:47:12;5.30;99.90
19734;DHT22;10018;51.230;7.860;2023-12-14T07:49:38;5.40;99.90
19734;DHT22;10018;51.230;7.860;2023-12-14T07:52:04;5.30;99.90
19734;DHT22;10018;51.230;7.860;2023-12-14T07:54:32;5.30;99.90
19734;DHT22;10018;51.230;7.860;2023-12-14T07:56:58;5.40;99.90
19734;DHT22;10018;51.230;7.860;2023-12-14T07:59:23;5.30;99.90
19734;DHT22;10018;51.230;7.860;2023-12-14T08:01:49;5.30;99.90
19734;DHT22;10018;51.230;7.860;2023-12-14T08:04:15;5.30;99.90
19734;DHT22;10018;51.230;7.860;2023-12-14T08:06:41;5.30;99.90
19734;DHT22;10018;51.230;7.860;2023-12-14T08:09:07;5.30;99.90
19734;DHT22;10018;51.230;7.860;2023-12-14T08:11:33;5.30;99.90
19734;DHT22;10018;51.230;7.860;2023-12-14T08:13:58;5.40;99.90
19734;DHT22;10018;51.230;7.860;2023-12-14T08:16:24;5.40;99.90
19734;DHT22;10018;51.230;7.860;2023-12-14T08:18:50;5.40;99.90
19734;DHT22;10018;51.230;7.860;2023-12-14T08:21:16;5.40;99.90
19734;DHT22;10018;51.230;7.860;2023-12-14T08:23:44;5.50;99.90
19734;DHT22;10018;51.230;7.860;2023-12-14T08:26:10;5.40;99.90
19734;DHT22;10018;51.230;7.860;2023-12-14T08:28:41;5.40;99.90
19734;DHT22;10018;51.230;7.860;2023-12-14T08:31:06;5.40;99.90
19734;DHT22;10018;51.230;7.860;2023-12-14T08:33:33;5.50;99.90
19734;DHT22;10018;51.230;7.860;2023-12-14T08:35:59;5.50;99.90
19734;DHT22;10018;51.230;7.860;2023-12-14T08:38:24;5.50;99.90
19734;DHT22;10018;51.230;7.860;2023-12-14T08:40:50;5.40;99.90
19734;DHT22;10018;51.230;7.860;2023-12-14T08:43:18;5.40;99.90
19734;DHT22;10018;51.230;7.860;2023-12-14T08:45:44;5.40;99.90
19734;DHT22;10018;51.230;7.860;2023-12-14T08:48:14;5.40;99.90
19734;DHT22;10018;51.230;7.860;2023-12-14T08:50:39;5.50;99.90
19734;DHT22;10018;51.230;7.860;2023-12-14T08:53:05;5.40;99.90
19734;DHT22;10018;51.230;7.860;2023-12-14T08:55:33;5.40;99.90
19734;DHT22;10018;51.230;7.860;2023-12-14T08:57:58;5.40;99.90
19734;DHT22;10018;51.230;7.860;2023-12-14T09:00:24;5.40;99.90
19734;DHT22;10018;51.230;7.860;2023-12-14T09:02:50;5.40;99.90
19734;DHT22;10018;51.230;7.860;2023-12-14T09:05:15;5.40;99.90
19734;DHT22;10018;51.230;7.860;2023-12-14T09:07:42;5.40;99.90
19734;DHT22;10018;51.230;7.860;2023-12-14T09:10:08;5.40;99.90
19734;DHT22;10018;51.230;7.860;2023-12-14T09:12:34;5.40;99.90
19734;DHT22;10018;51.230;7.860;2023-12-14T09:15:00;5.40;99.90
19734;DHT22;10018;51.230;7.860;2023-12-14T09:17:26;5.30;99.90
19734;DHT22;10018;51.230;7.860;2023-12-14T09:19:58;5.30;99.90
19734;DHT22;10018;51.230;7.860;2023-12-14T09:22:24;5.30;99.90
19734;DHT22;10018;51.230;7.860;2023-12-14T09:24:49;5.30;99.90
19734;DHT22;10018;51.230;7.860;2023-12-14T09:27:15;5.20;99.90
19734;DHT22;10018;51.230;7.860;2023-12-14T09:29:41;5.30;99.90
19734;DHT22;10018;51.230;7.860;2023-12-14T09:32:08;5.20;99.90
19734;DHT22;10018;51.230;7.860;2023-12-14T09:34:34;5.20;99.90
19734;DHT22;10018;51.230;7.860;2023-12-14T09:36:59;5.20;99.90
19734;DHT22;10018;51.230;7.860;2023-12-14T09:39:25;5.20;99.90
19734;DHT22;10018;51.230;7.860;2023-12-14T09:41:51;5.20;99.90
19734;DHT22;10018;51.230;7.860;2023-12-14T09:44:16;5.20;99.90
19734;DHT22;10018;51.230;7.860;2023-12-14T09:46:43;5.20;99.90
19734;DHT22;10018;51.230;7.860;2023-12-14T09:49:15;5.20;99.90
19734;DHT22;10018;51.230;7.860;2023-12-14T09:51:41;5.20;99.90
19734;DHT22;10018;51.230;7.860;2023-12-14T09:54:06;5.20;99.90
19734;DHT22;10018;51.230;7.860;2023-12-14T09:56:32;5.10;99.90
19734;DHT22;10018;51.230;7.860;2023-12-14T09:58:58;5.10;99.90
19734;DHT22;10018;51.230;7.860;2023-12-14T10:01:27;5.00;99.90
19734;DHT22;10018;51.230;7.860;2023-12-14T10:04:13;5.00;99.90
19734;DHT22;10018;51.230;7.860;2023-12-14T10:06:40;5.00;99.90
19734;DHT22;10018;51.230;7.860;2023-12-14T10:09:06;5.00;99.90
19734;DHT22;10018;51.230;7.860;2023-12-14T10:11:42;5.10;99.90
19734;DHT22;10018;51.230;7.860;2023-12-14T10:14:22;5.10;99.90
19734;DHT22;10018;51.230;7.860;2023-12-14T10:16:51;5.00;99.90
19734;DHT22;10018;51.230;7.860;2023-12-14T10:19:18;5.00;99.90
19734;DHT22;10018;51.230;7.860;2023-12-14T10:21:48;5.10;99.90
19734;DHT22;10018;51.230;7.860;2023-12-14T10:24:14;5.10;99.90
19734;DHT22;10018;51.230;7.860;2023-12-14T10:26:44;5.10;99.90
19734;DHT22;10018;51.230;7.860;2023-12-14T10:29:10;5.10;99.90
19734;DHT22;10018;51.230;7.860;2023-12-14T10:31:37;5.10;99.90
19734;DHT22;10018;51.230;7.860;2023-12-14T10:34:06;5.10;99.90
19734;DHT22;10018;51.230;7.860;2023-12-14T10:36:32;5.10;99.90
19734;DHT22;10018;51.230;7.860;2023-12-14T10:39:00;5.10;99.90
19734;DHT22;10018;51.230;7.860;2023-12-14T10:41:30;5.10;99.90
19734;DHT22;10018;51.230;7.860;2023-12-14T10:43:57;5.20;99.90
19734;DHT22;10018;51.230;7.860;2023-12-14T10:46:23;5.20;99.90
19734;DHT22;10018;51.230;7.860;2023-12-14T10:48:50;5.20;99.90
19734;DHT22;10018;51.230;7.860;2023-12-14T10:51:18;5.30;99.90
19734;DHT22;10018;51.230;7.860;2023-12-14T10:53:45;5.30;99.90
19734;DHT22;10018;51.230;7.860;2023-12-14T10:56:17;5.20;99.90
19734;DHT22;10018;51.230;7.860;2023-12-14T10:58:57;5.20;99.90
19734;DHT22;10018;51.230;7.860;2023-12-14T11:01:23;5.20;99.90
19734;DHT22;10018;51.230;7.860;2023-12-14T11:03:50;5.30;99.90
19734;DHT22;10018;51.230;7.860;2023-12-14T11:06:30;5.30;99.90
19734;DHT22;10018;51.230;7.860;2023-12-14T11:09:01;5.30;99.90
19734;DHT22;10018;51.230;7.860;2023-12-14T11:11:41;5.30;99.90
19734;DHT22;10018;51.230;7.860;2023-12-14T11:14:11;5.40;99.90
19734;DHT22;10018;51.230;7.860;2023-12-14T11:16:38;5.40;99.90
19734;DHT22;10018;51.230;7.860;2023-12-14T11:24:37;5.40;99.90
19734;DHT22;10018;51.230;7.860;2023-12-14T11:27:08;5.40;99.90
19734;DHT22;10018;51.230;7.860;2023-12-14T11:29:38;5.40;99.90
19734;DHT22;10018;51.230;7.860;2023-12-14T11:32:06;5.40;99.90
19734;DHT22;10018;51.230;7.860;2023-12-14T11:34:32;5.40;99.90
19734;DHT22;10018;51.230;7.860;2023-12-14T11:36:58;5.50;99.90
19734;DHT22;10018;51.230;7.860;2023-12-14T11:39:24;5.60;99.90
19734;DHT22;10018;51.230;7.860;2023-12-14T11:42:03;5.60;99.90
19734;DHT22;10018;51.230;7.860;2023-12-14T11:44:29;5.60;99.90
19734;DHT22;10018;51.230;7.860;2023-12-14T11:46:56;5.50;99.90
19734;DHT22;10018;51.230;7.860;2023-12-14T11:49:24;5.50;99.90
19734;DHT22;10018;51.230;7.860;2023-12-14T11:51:52;5.50;99.90
19734;DHT22;10018;51.230;7.860;2023-12-14T11:54:19;5.60;99.90
19734;DHT22;10018;51.230;7.860;2023-12-14T11:56:47;5.60;99.90
19734;DHT22;10018;51.230;7.860;2023-12-14T11:59:15;5.60;99.90
19734;DHT22;10018;51.230;7.860;2023-12-14T12:01:54;5.60;99.90
19734;DHT22;10018;51.230;7.860;2023-12-14T12:04:23;5.60;99.90
19734;DHT22;10018;51.230;7.860;2023-12-14T12:06:48;5.60;99.90
19734;DHT22;10018;51.230;7.860;2023-12-14T12:09:31;5.70;99.90
19734;DHT22;10018;51.230;7.860;2023-12-14T12:11:57;5.60;99.90
19734;DHT22;10018;51.230;7.860;2023-12-14T12:14:23;5.60;99.90
19734;DHT22;10018;51.230;7.860;2023-12-14T12:16:48;5.60;99.90
19734;DHT22;10018;51.230;7.860;2023-12-14T12:19:15;5.60;99.90
19734;DHT22;10018;51.230;7.860;2023-12-14T12:21:40;5.60;99.90
19734;DHT22;10018;51.230;7.860;2023-12-14T12:24:06;5.50;99.90
19734;DHT22;10018;51.230;7.860;2023-12-14T12:26:32;5.50;99.90
19734;DHT22;10018;51.230;7.860;2023-12-14T12:28:57;5.50;99.90
19734;DHT22;10018;51.230;7.860;2023-12-14T12:31:23;5.40;99.90
19734;DHT22;10018;51.230;7.860;2023-12-14T12:33:49;5.50;99.90
19734;DHT22;10018;51.230;7.860;2023-12-14T12:36:19;5.50;99.90
19734;DHT22;10018;51.230;7.860;2023-12-14T12:38:46;5.50;99.90
19734;DHT22;10018;51.230;7.860;2023-12-14T12:41:12;5.50;99.90
19734;DHT22;10018;51.230;7.860;2023-12-14T12:43:37;5.40;99.90
19734;DHT22;10018;51.230;7.860;2023-12-14T12:46:03;5.40;99.90
19734;DHT22;10018;51.230;7.860;2023-12-14T12:48:29;5.40;99.90
19734;DHT22;10018;51.230;7.860;2023-12-14T12:50:57;5.40;99.90
19734;DHT22;10018;51.230;7.860;2023-12-14T12:53:25;5.40;99.90
19734;DHT22;10018;51.230;7.860;2023-12-14T12:55:52;5.40;99.90
19734;DHT22;10018;51.230;7.860;2023-12-14T12:58:17;5.30;99.90
19734;DHT22;10018;51.230;7.860;2023-12-14T13:00:43;5.30;99.90
19734;DHT22;10018;51.230;7.860;2023-12-14T13:03:08;5.40;99.90
19734;DHT22;10018;51.230;7.860;2023-12-14T13:05:35;5.40;99.90
19734;DHT22;10018;51.230;7.860;2023-12-14T13:08:03;5.40;99.90
19734;DHT22;10018;51.230;7.860;2023-12-14T13:10:29;5.30;99.90
19734;DHT22;10018;51.230;7.860;2023-12-14T13:12:54;5.40;99.90
19734;DHT22;10018;51.230;7.860;2023-12-14T13:15:22;5.30;99.90
19734;DHT22;10018;51.230;7.860;2023-12-14T13:17:49;5.40;99.90
19734;DHT22;10018;51.230;7.860;2023-12-14T13:20:15;5.40;99.90
19734;DHT22;10018;51.230;7.860;2023-12-14T13:22:43;5.30;99.90
19734;DHT22;10018;51.230;7.860;2023-12-14T13:25:11;5.40;99.90
19734;DHT22;10018;51.230;7.860;2023-12-14T13:27:39;5.40;99.90
19734;DHT22;10018;51.230;7.860;2023-12-14T13:30:06;5.40;99.90
19734;DHT22;10018;51.230;7.860;2023-12-14T13:32:33;5.40;99.90
19734;DHT22;10018;51.230;7.860;2023-12-14T13:35:01;5.40;99.90
19734;DHT22;10018;51.230;7.860;2023-12-14T13:37:27;5.40;99.90
19734;DHT22;10018;51.230;7.860;2023-12-14T13:39:55;5.30;99.90
19734;DHT22;10018;51.230;7.860;2023-12-14T13:42:20;5.20;99.90
19734;DHT22;10018;51.230;7.860;2023-12-14T13:44:46;5.20;99.90
19734;DHT22;10018;51.230;7.860;2023-12-14T13:47:12;5.20;99.90
19734;DHT22;10018;51.230;7.860;2023-12-14T13:49:37;5.20;99.90
19734;DHT22;10018;51.230;7.860;2023-12-14T13:52:04;5.10;99.90
19734;DHT22;10018;51.230;7.860;2023-12-14T13:54:31;5.10;99.90
19734;DHT22;10018;51.230;7.860;2023-12-14T13:56:57;5.10;99.90
19734;DHT22;10018;51.230;7.860;2023-12-14T13:59:23;5.10;99.90
19734;DHT22;10018;51.230;7.860;2023-12-14T14:01:48;5.20;99.90
19734;DHT22;10018;51.230;7.860;2023-12-14T14:04:20;5.10;99.90
19734;DHT22;10018;51.230;7.860;2023-12-14T14:06:45;5.10;99.90
19734;DHT22;10018;51.230;7.860;2023-12-14T14:09:11;5.10;99.90
19734;DHT22;10018;51.230;7.860;2023-12-14T14:11:37;5.10;99.90
19734;DHT22;10018;51.230;7.860;2023-12-14T14:14:03;5.10;99.90
19734;DHT22;10018;51.230;7.860;2023-12-14T14:16:31;5.10;99.90
19734;DHT22;10018;51.230;7.860;2023-12-14T14:18:57;5.00;99.90
19734;DHT22;10018;51.230;7.860;2023-12-14T14:21:22;5.10;99.90
19734;DHT22;10018;51.230;7.860;2023-12-14T14:23:48;5.10;99.90
19734;DHT22;10018;51.230;7.860;2023-12-14T14:26:14;5.00;99.90
19734;DHT22;10018;51.230;7.860;2023-12-14T14:28:39;5.00;99.90
19734;DHT22;10018;51.230;7.860;2023-12-14T14:31:05;5.10;99.90
19734;DHT22;10018;51.230;7.860;2023-12-14T14:33:31;5.10;99.90
19734;DHT22;10018;51.230;7.860;2023-12-14T14:35:56;5.10;99.90
19734;DHT22;10018;51.230;7.860;2023-12-14T14:38:22;5.10;99.90
19734;DHT22;10018;51.230;7.860;2023-12-14T14:40:47;5.10;99.90
19734;DHT22;10018;51.230;7.860;2023-12-14T14:43:13;5.00;99.90
19734;DHT22;10018;51.230;7.860;2023-12-14T14:45:42;5.00;99.90
19734;DHT22;10018;51.230;7.860;2023-12-14T14:48:09;5.00;99.90
19734;DHT22;10018;51.230;7.860;2023-12-14T14:50:34;5.00;99.90
19734;DHT22;10018;51.230;7.860;2023-12-14T14:53:00;5.00;99.90
19734;DHT22;10018;51.230;7.860;2023-12-14T14:55:26;5.00;99.90
19734;DHT22;10018;51.230;7.860;2023-12-14T14:57:54;5.20;99.90
19734;DHT22;10018;51.230;7.860;2023-12-14T15:00:19;5.10;99.90
19734;DHT22;10018;51.230;7.860;2023-12-14T15:02:45;5.00;99.90
19734;DHT22;10018;51.230;7.860;2023-12-14T15:05:11;5.00;99.90
19734;DHT22;10018;51.230;7.860;2023-12-14T15:07:36;5.10;99.90
19734;DHT22;10018;51.230;7.860;2023-12-14T15:10:02;5.10;99.90
19734;DHT22;10018;51.230;7.860;2023-12-14T15:12:28;5.10;99.90
19734;DHT22;10018;51.230;7.860;2023-12-14T15:14:54;5.10;99.90
19734;DHT22;10018;51.230;7.860;2023-12-14T15:17:21;5.10;99.90
19734;DHT22;10018;51.230;7.860;2023-12-14T15:19:48;5.00;99.90
19734;DHT22;10018;51.230;7.860;2023-12-14T15:22:15;5.00;99.90
19734;DHT22;10018;51.230;7.860;2023-12-14T15:24:42;4.90;99.90
19734;DHT22;10018;51.230;7.860;2023-12-14T15:27:08;4.90;99.90
19734;DHT22;10018;51.230;7.860;2023-12-14T15:29:34;4.90;99.90
19734;DHT22;10018;51.230;7.860;2023-12-14T15:31:59;4.90;99.90
19734;DHT22;10018;51.230;7.860;2023-12-14T15:34:25;4.80;99.90
19734;DHT22;10018;51.230;7.860;2023-12-14T15:36:51;4.80;99.90
19734;DHT22;10018;51.230;7.860;2023-12-14T15:39:16;4.80;99.90
19734;DHT22;10018;51.230;7.860;2023-12-14T15:41:43;4.80;99.90
19734;DHT22;10018;51.230;7.860;2023-12-14T15:44:08;4.80;99.90
19734;DHT22;10018;51.230;7.860;2023-12-14T15:46:34;4.80;99.90